Time;durP1;ratioP1;P1;durP2;ratioP2;P2;SDS_P1;SDS_P2;PMS_P1;PMS_P2;Temp;Humidity;BMP_temperature;BMP_pressure;BME280_temperature;BME280_humidity;BME280_pressure;Samples;Min_cycle;Max_cycle;Signal;HPM_P1;HPM_P2
2022/05/30 00:01:50;;;;;;;6.70;2.45;;;;;;;13.07;59.03;100691.56;4958359;28;119709;-79
2022/05/30 00:04:15;;;;;;;12.07;3.00;;;;;;;13.09;59.28;100700.88;4957620;28;120229;-79
2022/05/30 00:06:41;;;;;;;9.68;2.60;;;;;;;13.08;59.10;100693.84;4924568;28;119727;-78
2022/05/30 00:09:08;;;;;;;11.13;2.80;;;;;;;13.07;59.26;100691.56;4927717;28;119623;-79
2022/05/30 00:11:35;;;;;;;9.98;2.35;;;;;;;13.10;59.36;100693.38;4940316;28;119274;-79
2022/05/30 00:14:01;;;;;;;10.20;2.47;;;;;;;13.10;59.56;100696.13;4958035;28;119339;-79
2022/05/30 00:16:29;;;;;;;10.18;2.35;;;;;;;13.09;58.93;100694.59;4939774;28;119580;-79
2022/05/30 00:18:55;;;;;;;10.65;2.35;;;;;;;13.06;59.43;100684.53;4918719;28;119689;-78
2022/05/30 00:21:24;;;;;;;9.13;2.65;;;;;;;13.09;59.74;100691.84;4935773;28;119291;-78
2022/05/30 00:23:53;;;;;;;10.10;2.65;;;;;;;13.11;59.74;100697.66;4935510;28;119834;-79
2022/05/30 00:26:20;;;;;;;10.00;2.45;;;;;;;13.11;59.42;100695.66;4918878;28;119993;-79
2022/05/30 00:28:46;;;;;;;10.20;2.60;;;;;;;13.10;58.97;100693.38;4936524;28;119303;-79
2022/05/30 00:31:15;;;;;;;9.52;2.65;;;;;;;13.10;58.90;100702.38;4939320;28;119365;-79
2022/05/30 00:33:42;;;;;;;8.85;2.42;;;;;;;13.11;59.50;100690.16;4945168;28;119320;-79
2022/05/30 00:36:08;;;;;;;8.23;2.53;;;;;;;13.09;59.67;100687.09;4923044;28;119815;-79
2022/05/30 00:38:39;;;;;;;7.70;2.55;;;;;;;13.12;60.12;100682.66;4957420;28;119151;-78
2022/05/30 00:41:06;;;;;;;8.90;2.40;;;;;;;13.10;59.99;100676.84;4930481;28;119698;-79
2022/05/30 00:43:34;;;;;;;7.13;2.22;;;;;;;13.16;59.79;100685.97;4938584;28;119612;-78
2022/05/30 00:46:03;;;;;;;9.57;2.30;;;;;;;13.18;59.70;100683.53;4923239;28;119650;-79
2022/05/30 00:48:35;;;;;;;9.80;2.53;;;;;;;13.15;59.69;100670.69;4939103;28;119491;-78
2022/05/30 00:51:05;;;;;;;4.88;2.15;;;;;;;13.20;59.53;100687.34;4938938;28;119798;-78
2022/05/30 00:53:33;;;;;;;8.10;2.22;;;;;;;13.19;59.43;100687.81;4943622;28;119619;-78
2022/05/30 00:56:02;;;;;;;9.65;2.65;;;;;;;13.20;60.10;100683.84;4938606;28;121221;-79
2022/05/30 00:58:31;;;;;;;11.05;2.40;;;;;;;13.21;60.55;100688.13;4955787;28;119734;-78
2022/05/30 01:00:58;;;;;;;6.85;2.40;;;;;;;13.25;60.54;100685.19;4938521;28;120189;-78
2022/05/30 01:08:54;;;;;;;8.68;2.35;;;;;;;13.35;60.93;100679.16;4937600;28;119258;-79
2022/05/30 01:11:20;;;;;;;9.48;2.65;;;;;;;13.37;60.03;100681.44;4937087;28;119977;-79
2022/05/30 01:13:45;;;;;;;7.65;2.70;;;;;;;13.39;60.54;100678.97;4939320;28;119608;-79
2022/05/30 01:16:11;;;;;;;6.28;2.40;;;;;;;13.41;60.51;100679.28;4943239;28;119755;-78
2022/05/30 01:18:46;;;;;;;11.02;2.78;;;;;;;13.43;60.15;100676.81;4923318;28;120121;-78
2022/05/30 01:21:30;;;;;;;9.35;2.53;;;;;;;13.43;60.89;100674.06;4936570;28;119272;-78
2022/05/30 01:24:18;;;;;;;6.85;2.35;;;;;;;13.44;60.71;100675.56;4937944;28;120073;-79
2022/05/30 01:27:31;;;;;;;5.13;2.25;;;;;;;13.47;60.83;100669.13;4941638;28;118753;-78
2022/05/30 01:30:05;;;;;;;8.95;2.50;;;;;;;13.49;61.09;100669.44;4939430;28;119639;-79
2022/05/30 01:32:31;;;;;;;7.55;2.47;;;;;;;13.48;61.31;100670.66;4907111;28;122291;-79
2022/05/30 01:34:58;;;;;;;6.80;2.40;;;;;;;13.55;60.79;100675.06;4923843;28;119690;-78
2022/05/30 01:37:31;;;;;;;8.25;2.13;;;;;;;13.54;60.63;100679.06;4920815;28;119322;-79
2022/05/30 01:39:57;;;;;;;7.20;2.50;;;;;;;13.54;60.90;100671.53;4923297;28;119272;-79
2022/05/30 01:42:25;;;;;;;9.93;3.22;;;;;;;13.51;61.32;100664.97;4919602;28;119370;-78
2022/05/30 01:44:51;;;;;;;11.23;2.75;;;;;;;13.58;61.24;100672.13;4918914;28;120163;-78
2022/05/30 01:47:20;;;;;;;10.32;2.85;;;;;;;13.51;60.73;100667.75;4919630;28;119367;-78
2022/05/30 01:49:46;;;;;;;11.38;3.10;;;;;;;13.58;60.75;100680.38;4927992;28;119724;-78
2022/05/30 01:52:12;;;;;;;9.00;2.33;;;;;;;13.57;60.88;100676.09;4938340;28;119240;-79
2022/05/30 01:54:38;;;;;;;8.50;2.55;;;;;;;13.60;60.77;100677.16;4938574;28;119360;-79
2022/05/30 01:57:22;;;;;;;7.00;2.45;;;;;;;13.59;60.53;100675.63;4925362;28;121312;-78
2022/05/30 02:00:10;;;;;;;5.93;2.30;;;;;;;13.51;60.48;100669.72;4941054;28;119598;-79
2022/05/30 02:02:42;;;;;;;;;;;;;;;13.52;60.92;100677.53;4960718;28;119213;-78
2022/05/30 02:05:08;;;;;;;7.22;2.65;;;;;;;13.51;61.12;100670.50;4922064;28;120653;-78
2022/05/30 02:07:33;;;;;;;10.30;3.00;;;;;;;13.57;61.27;100675.34;4938953;28;119833;-78
2022/05/30 02:09:59;;;;;;;11.02;2.47;;;;;;;13.56;60.96;100671.81;4912099;28;121601;-78
2022/05/30 02:12:26;;;;;;;7.85;2.47;;;;;;;13.58;61.37;100674.88;4929904;28;120072;-78
2022/05/30 02:15:04;;;;;;;10.88;2.65;;;;;;;13.60;61.16;100674.41;4952838;28;119748;-78
2022/05/30 02:17:34;;;;;;;8.02;2.50;;;;;;;13.62;61.23;100680.19;4937063;28;119192;-79
2022/05/30 02:20:01;;;;;;;8.20;2.90;;;;;;;13.63;61.09;100673.47;4952162;28;119024;-79
2022/05/30 02:22:29;;;;;;;7.32;3.03;;;;;;;13.61;61.25;100667.66;4940909;28;119518;-79
2022/05/30 02:24:56;;;;;;;9.82;2.90;;;;;;;13.65;61.22;100655.22;4936354;28;120685;-79
2022/05/30 02:27:23;;;;;;;10.80;3.05;;;;;;;13.65;61.31;100663.47;4896172;28;119692;-78
2022/05/30 02:29:49;;;;;;;9.88;3.20;;;;;;;13.64;60.85;100658.44;4933954;28;119731;-78
2022/05/30 02:32:19;;;;;;;11.13;3.30;;;;;;;13.64;60.73;100658.44;4921605;28;120747;-79
2022/05/30 02:37:29;;;;;;;;;;;;;;;13.64;60.55;100661.97;4935743;28;119712;-79
2022/05/30 02:40:01;;;;;;;8.60;3.00;;;;;;;13.64;61.05;100661.19;4951077;28;119665;-79
2022/05/30 02:42:46;;;;;;;10.05;3.08;;;;;;;13.63;60.75;100659.69;4952230;28;119661;-78
2022/05/30 02:45:13;;;;;;;9.80;3.35;;;;;;;13.64;60.90;100666.72;4938706;28;120101;-79
2022/05/30 02:47:39;;;;;;;10.23;3.45;;;;;;;13.68;60.89;100667.28;4935694;28;119355;-79
2022/05/30 02:50:12;;;;;;;8.43;2.97;;;;;;;13.66;60.90;100659.50;4935131;28;119331;-79
2022/05/30 02:52:37;;;;;;;9.88;3.60;;;;;;;13.70;61.07;100662.81;4950715;28;119741;-79
2022/05/30 02:55:05;;;;;;;11.05;3.70;;;;;;;13.72;60.85;100667.84;4936224;28;119406;-78
2022/05/30 02:57:36;;;;;;;9.98;3.33;;;;;;;13.71;61.03;100661.59;4937386;28;119413;-79
2022/05/30 03:00:04;;;;;;;9.15;3.42;;;;;;;13.73;60.89;100670.16;4927947;28;120130;-79
2022/05/30 03:02:34;;;;;;;16.95;3.95;;;;;;;13.69;60.74;100666.81;4935501;28;120156;-79
2022/05/30 03:05:02;;;;;;;8.50;3.58;;;;;;;13.70;61.06;100668.34;4918324;28;119330;-79
2022/05/30 03:07:28;;;;;;;8.57;3.38;;;;;;;13.74;61.14;100673.69;4890014;28;121210;-78
2022/05/30 03:09:54;;;;;;;7.78;3.50;;;;;;;13.71;61.45;100664.34;4902497;28;119356;-78
2022/05/30 03:12:49;;;;;;;11.50;3.70;;;;;;;13.75;60.89;100677.97;4910103;28;120831;-79
2022/05/30 03:15:15;;;;;;;10.15;3.40;;;;;;;13.74;60.59;100681.97;4934549;28;119331;-79
2022/05/30 03:17:43;;;;;;;7.57;3.25;;;;;;;13.73;60.86;100680.44;4951864;28;119330;-79
2022/05/30 03:20:09;;;;;;;11.68;3.67;;;;;;;13.75;60.71;100684.25;4937561;28;119738;-79
2022/05/30 03:22:36;;;;;;;11.43;3.33;;;;;;;13.76;60.75;100679.50;4954215;28;119303;-78
2022/05/30 03:25:11;;;;;;;5.90;2.78;;;;;;;13.78;60.96;100677.03;4955318;28;119140;-79
2022/05/30 03:27:37;;;;;;;7.35;3.33;;;;;;;13.80;60.88;100680.06;4937614;28;119427;-79
2022/05/30 03:30:04;;;;;;;12.07;3.50;;;;;;;13.82;61.03;100688.63;4942902;28;119394;-78
2022/05/30 03:32:30;;;;;;;10.93;3.55;;;;;;;13.80;61.07;100674.56;4924486;28;119855;-79
2022/05/30 03:34:55;;;;;;;10.50;3.38;;;;;;;13.85;60.62;100682.16;4959289;28;119175;-78
2022/05/30 03:37:21;;;;;;;12.32;3.85;;;;;;;13.88;60.84;100680.44;4940303;28;119316;-79
2022/05/30 03:39:57;;;;;;;8.07;4.00;;;;;;;13.87;60.79;100679.69;4925866;28;119285;-78
2022/05/30 03:42:56;;;;;;;9.50;3.95;;;;;;;13.92;61.12;100690.06;4912054;28;119471;-78
2022/05/30 03:45:22;;;;;;;9.18;4.38;;;;;;;13.94;61.00;100684.81;4921910;28;119855;-79
2022/05/30 03:47:49;;;;;;;10.10;3.80;;;;;;;13.94;60.29;100684.06;4937757;28;120337;-78
2022/05/30 03:50:21;;;;;;;7.50;3.60;;;;;;;13.98;61.07;100690.94;4916215;28;119128;-79
2022/05/30 03:52:47;;;;;;;11.43;4.53;;;;;;;14.00;60.47;100693.22;4944283;28;119465;-78
2022/05/30 03:55:19;;;;;;;9.43;4.57;;;;;;;14.01;60.85;100698.25;4924568;28;119518;-78
2022/05/30 03:57:45;;;;;;;8.90;4.13;;;;;;;13.99;60.87;100688.94;4923881;28;119820;-79
2022/05/30 04:00:16;;;;;;;13.52;4.43;;;;;;;14.01;60.47;100697.50;4923820;28;120653;-79
2022/05/30 04:02:42;;;;;;;13.77;4.07;;;;;;;14.06;59.77;100697.59;4940274;28;119587;-79
2022/05/30 04:05:10;;;;;;;8.75;3.83;;;;;;;14.06;60.27;100686.56;4924902;28;121173;-79
2022/05/30 04:07:38;;;;;;;9.20;3.60;;;;;;;14.08;60.79;100691.59;4923601;28;121120;-79
2022/05/30 04:10:25;;;;;;;9.52;3.90;;;;;;;14.04;60.31;100686.28;4957547;28;119331;-79
2022/05/30 04:13:11;;;;;;;8.68;3.67;;;;;;;14.12;60.87;100697.69;4930367;28;121202;-79
2022/05/30 04:15:55;;;;;;;7.50;3.50;;;;;;;14.14;61.47;100695.22;4932785;28;119160;-78
2022/05/30 04:18:21;;;;;;;10.90;4.07;;;;;;;14.16;60.77;100691.97;4940517;28;119429;-79
2022/05/30 04:20:48;;;;;;;6.22;3.13;;;;;;;14.14;61.00;100684.19;4957028;28;119333;-79
2022/05/30 04:23:14;;;;;;;8.40;3.65;;;;;;;14.16;60.70;100683.72;4924468;28;119429;-79
2022/05/30 04:25:52;;;;;;;9.00;3.22;;;;;;;14.19;60.43;100688.28;4940605;28;119961;-79
2022/05/30 04:28:19;;;;;;;8.85;3.50;;;;;;;14.21;60.02;100689.34;4923623;28;121742;-79
2022/05/30 04:30:53;;;;;;;8.10;3.50;;;;;;;14.21;60.57;100692.09;4940268;28;119406;-79
2022/05/30 04:33:19;;;;;;;8.70;3.45;;;;;;;14.19;60.44;100682.75;4940313;28;119923;-79
2022/05/30 04:35:44;;;;;;;8.65;3.20;;;;;;;14.25;60.27;100692.69;4927166;28;121702;-79
2022/05/30 04:38:10;;;;;;;6.80;3.40;;;;;;;14.29;60.83;100692.47;4940273;28;119354;-79
2022/05/30 04:40:54;;;;;;;5.80;3.00;;;;;;;14.27;60.87;100683.91;4955709;28;120829;-79
2022/05/30 04:43:38;;;;;;;;;;;;;;;14.31;60.68;100695.53;4957763;28;119925;-79
2022/05/30 04:46:22;;;;;;;6.60;2.90;;;;;;;14.32;61.01;100694.28;4958051;28;119430;-79
2022/05/30 04:48:53;;;;;;;7.97;3.05;;;;;;;14.36;61.14;100703.88;4939006;28;119663;-78
2022/05/30 04:51:19;;;;;;;7.80;3.13;;;;;;;14.41;61.33;100705.22;4958066;28;119403;-79
2022/05/30 04:53:44;;;;;;;5.40;3.08;;;;;;;14.43;61.53;100708.28;4940385;28;119770;-79
2022/05/30 04:56:10;;;;;;;8.45;3.00;;;;;;;14.46;61.55;100701.84;4956569;28;119702;-79
2022/05/30 04:58:54;;;;;;;;;;;;;;;14.50;61.43;100713.44;4962572;28;119311;-79
2022/05/30 05:01:20;;;;;;;6.72;2.67;;;;;;;14.55;61.25;100714.78;4919859;28;120079;-79
2022/05/30 05:03:47;;;;;;;7.65;2.97;;;;;;;14.55;61.24;100715.53;4938016;28;119234;-78
2022/05/30 05:06:15;;;;;;;6.80;2.85;;;;;;;14.63;61.72;100711.13;4939300;28;119337;-79
2022/05/30 05:08:51;;;;;;;7.22;3.10;;;;;;;14.67;61.72;100708.97;4939080;28;119964;-79
2022/05/30 05:11:34;;;;;;;6.38;2.78;;;;;;;14.70;61.13;100719.06;4957349;28;119413;-79
2022/05/30 05:14:18;;;;;;;5.50;2.60;;;;;;;14.71;61.40;100726.09;4941950;28;119750;-79
2022/05/30 05:17:07;;;;;;;8.30;2.83;;;;;;;14.71;60.56;100717.81;4954914;28;122406;-79
2022/05/30 05:19:33;;;;;;;7.57;2.70;;;;;;;14.74;60.81;100725.13;4939251;28;119364;-78
2022/05/30 05:21:59;;;;;;;7.53;2.38;;;;;;;14.73;60.10;100718.09;4943346;28;120235;-79
2022/05/30 05:24:25;;;;;;;4.80;2.13;;;;;;;14.80;59.51;100729.97;4939186;28;119315;-79
2022/05/30 05:27:10;;;;;;;5.57;2.00;;;;;;;14.80;59.31;100727.22;4957467;28;119251;-79
2022/05/30 05:29:36;;;;;;;5.45;1.90;;;;;;;14.81;59.74;100725.97;4922785;28;122370;-79
2022/05/30 05:32:04;;;;;;;7.18;2.00;;;;;;;14.82;59.48;100721.97;4923116;28;119363;-79
2022/05/30 05:34:32;;;;;;;4.47;2.10;;;;;;;14.83;59.37;100727.03;4957137;28;119396;-79
2022/05/30 05:36:58;;;;;;;7.32;2.42;;;;;;;14.85;60.15;100727.31;4938760;28;119755;-78
2022/05/30 05:39:25;;;;;;;6.60;2.20;;;;;;;14.85;59.18;100727.31;4939432;28;119389;-79
2022/05/30 05:41:55;;;;;;;6.18;2.20;;;;;;;14.86;59.37;100728.06;4939320;28;119592;-79
2022/05/30 05:44:21;;;;;;;5.82;2.00;;;;;;;14.88;59.76;100731.88;4910580;28;121360;-79
2022/05/30 05:46:48;;;;;;;5.30;2.00;;;;;;;14.90;59.75;100737.66;4919250;28;119486;-78
2022/05/30 05:49:15;;;;;;;8.55;2.20;;;;;;;14.95;60.61;100736.25;4920538;28;120671;-79
2022/05/30 05:51:41;;;;;;;7.70;2.38;;;;;;;15.00;61.05;100741.09;4939278;28;119443;-79
2022/05/30 05:54:10;;;;;;;5.28;2.15;;;;;;;15.03;60.82;100742.91;4922632;28;119920;-79
2022/05/30 05:56:37;;;;;;;8.98;2.22;;;;;;;15.02;60.70;100738.63;4938117;28;119289;-78
2022/05/30 05:59:09;;;;;;;8.57;2.20;;;;;;;15.11;60.26;100748.78;4920089;28;119359;-79
2022/05/30 06:01:35;;;;;;;7.45;2.30;;;;;;;15.15;60.08;100758.41;4919335;28;119415;-78
2022/05/30 06:04:05;;;;;;;4.13;2.05;;;;;;;15.15;60.09;100750.13;4944400;28;120226;-78
2022/05/30 06:06:50;;;;;;;5.47;1.83;;;;;;;15.20;60.28;100752.19;4938405;28;119486;-79
2022/05/30 06:09:26;;;;;;;8.70;2.00;;;;;;;15.23;59.63;100756.00;4923575;28;120322;-79
2022/05/30 06:11:57;;;;;;;6.10;2.13;;;;;;;15.23;60.09;100756.75;4904680;28;119642;-78
2022/05/30 06:14:23;;;;;;;8.65;2.30;;;;;;;15.24;59.52;100747.22;4924077;28;119745;-78
2022/05/30 06:16:51;;;;;;;6.03;2.33;;;;;;;15.31;59.71;100763.41;4903011;28;120703;-79
2022/05/30 06:19:19;;;;;;;8.02;2.40;;;;;;;15.33;59.45;100758.16;4935643;28;119567;-79
2022/05/30 06:21:44;;;;;;;7.07;2.17;;;;;;;15.33;60.03;100758.16;4947295;28;119648;-79
2022/05/30 06:24:12;;;;;;;8.57;2.15;;;;;;;15.36;59.56;100753.66;4934836;28;119422;-79
2022/05/30 06:26:56;;;;;;;5.47;2.15;;;;;;;15.40;59.13;100757.00;4940937;28;119264;-78
2022/05/30 06:29:30;;;;;;;6.13;1.90;;;;;;;15.44;58.64;100757.56;4918192;28;121035;-79
2022/05/30 06:31:57;;;;;;;6.45;2.22;;;;;;;15.51;58.70;100759.91;4890544;28;119287;-79
2022/05/30 06:34:24;;;;;;;8.45;2.13;;;;;;;15.55;58.37;100760.47;4937532;28;119821;-79
2022/05/30 06:36:50;;;;;;;7.60;2.50;;;;;;;15.64;58.54;100768.66;4936919;28;119462;-79
2022/05/30 06:39:19;;;;;;;4.60;1.50;;;;;;;15.60;57.92;100757.03;4937239;28;119568;-79
2022/05/30 06:41:59;;;;;;;3.92;1.55;;;;;;;15.70;58.27;100768.75;4938319;28;119725;-79
2022/05/30 06:44:25;;;;;;;4.05;1.45;;;;;;;15.75;56.43;100773.56;4931956;28;120116;-78
2022/05/30 06:47:17;;;;;;;6.80;2.20;;;;;;;15.76;56.37;100777.84;4942133;28;119239;-79
2022/05/30 06:50:01;;;;;;;5.05;1.88;;;;;;;15.80;56.87;100774.88;4940865;28;119439;-79
2022/05/30 06:52:27;;;;;;;5.80;1.92;;;;;;;15.84;56.94;100776.19;4933273;28;119510;-79
2022/05/30 06:54:52;;;;;;;4.05;1.85;;;;;;;15.87;57.24;100772.47;4936686;28;119540;-79
2022/05/30 07:00:03;;;;;;;;;;;;;;;15.96;57.26;100779.88;4930618;28;119395;-79
2022/05/30 07:02:30;;;;;;;7.35;1.90;;;;;;;16.00;56.94;100772.09;4930803;28;119905;-79
2022/05/30 07:05:14;;;;;;;6.20;2.10;;;;;;;16.04;56.74;100775.41;4946521;28;120036;-79
2022/05/30 07:07:59;;;;;;;4.80;1.80;;;;;;;16.07;56.59;100785.50;4954243;28;119290;-79
2022/05/30 07:10:35;;;;;;;4.72;2.05;;;;;;;16.10;57.28;100775.50;4934441;28;119802;-79
2022/05/30 07:13:09;;;;;;;4.70;1.85;;;;;;;16.13;56.49;100785.59;4906657;28;120038;-79
2022/05/30 07:15:36;;;;;;;6.30;2.13;;;;;;;16.15;56.77;100783.88;4925589;28;119278;-79
2022/05/30 07:18:11;;;;;;;6.32;1.77;;;;;;;16.18;57.18;100787.66;4936020;28;120208;-79
2022/05/30 07:20:38;;;;;;;3.95;1.80;;;;;;;16.20;56.88;100785.16;4937527;28;119471;-79
2022/05/30 07:23:23;;;;;;;4.22;1.90;;;;;;;16.16;56.37;100787.38;4952265;28;119317;-79
2022/05/30 07:26:19;;;;;;;6.75;1.70;;;;;;;16.23;56.30;100789.72;4924028;28;119731;-79
2022/05/30 07:29:04;;;;;;;5.22;1.85;;;;;;;16.24;56.24;100785.72;4940255;28;119560;-78
2022/05/30 07:31:49;;;;;;;5.70;1.90;;;;;;;16.24;55.76;100780.94;4954167;28;119391;-79
2022/05/30 07:34:34;;;;;;;6.57;1.63;;;;;;;16.31;55.89;100790.81;4955110;28;119684;-79
2022/05/30 07:37:34;;;;;;;3.97;1.75;;;;;;;16.36;55.39;100789.38;4862084;28;119704;-79
2022/05/30 07:40:39;;;;;;;3.75;1.40;;;;;;;16.40;55.50;100787.91;4847582;28;119588;-79
2022/05/30 07:43:27;;;;;;;5.35;1.50;;;;;;;16.50;55.23;100792.03;4868851;28;120030;-79
2022/05/30 07:46:14;;;;;;;6.15;1.45;;;;;;;16.51;54.47;100782.47;4924394;28;119320;-78
2022/05/30 07:49:01;;;;;;;2.15;0.98;;;;;;;16.56;53.50;100787.31;4917254;28;120536;-78
2022/05/30 07:51:45;;;;;;;;;;;;;;;16.58;54.12;100790.34;4933375;28;119716;-81
2022/05/30 07:54:37;;;;;;;4.30;1.52;;;;;;;16.61;53.42;100791.38;4943581;28;119544;-79
2022/05/30 07:57:11;;;;;;;4.70;1.30;;;;;;;16.63;53.87;100782.59;4937858;28;119932;-79
2022/05/30 07:59:37;;;;;;;7.00;1.20;;;;;;;16.72;53.85;100801.81;4919411;28;119637;-79
2022/05/30 08:02:05;;;;;;;4.32;1.40;;;;;;;16.72;51.31;100801.81;4920507;28;119502;-79
2022/05/30 08:04:31;;;;;;;3.33;1.15;;;;;;;16.69;52.21;100803.56;4918685;28;119763;-81
2022/05/30 08:06:57;;;;;;;4.40;1.50;;;;;;;16.66;52.35;100796.22;4954558;28;119382;-80
2022/05/30 08:09:32;;;;;;;3.47;1.10;;;;;;;16.69;54.12;100798.03;4955116;28;120463;-78
2022/05/30 08:12:07;;;;;;;2.40;1.20;;;;;;;16.72;53.86;100790.75;4924202;28;119582;-78
2022/05/30 08:14:53;;;;;;;4.75;1.20;;;;;;;16.72;55.14;100791.50;4951768;28;119884;-79
2022/05/30 08:17:20;;;;;;;4.45;1.20;;;;;;;16.76;53.93;100794.03;4929134;28;120316;-79
2022/05/30 08:19:46;;;;;;;5.28;1.40;;;;;;;16.70;53.38;100798.78;4937761;28;119779;-79
2022/05/30 08:22:12;;;;;;;4.82;1.35;;;;;;;16.68;53.93;100801.28;4936703;28;119400;-79
2022/05/30 08:24:41;;;;;;;4.28;1.40;;;;;;;16.66;52.58;100809.28;4923607;28;120481;-79
2022/05/30 08:27:13;;;;;;;3.03;1.30;;;;;;;16.58;53.74;100806.97;4936729;28;119753;-79
2022/05/30 08:29:48;;;;;;;4.25;1.10;;;;;;;16.53;53.57;100804.88;4919653;28;121764;-78
2022/05/30 08:32:15;;;;;;;3.35;1.10;;;;;;;16.52;52.23;100808.13;4935620;28;119645;-78
2022/05/30 08:34:58;;;;;;;3.97;1.30;;;;;;;16.47;53.54;100797.78;4922200;28;120289;-79
2022/05/30 08:37:30;;;;;;;4.57;1.67;;;;;;;16.41;51.74;100796.97;4919001;28;120287;-78
2022/05/30 08:42:52;;;;;;;5.47;1.52;;;;;;;16.46;51.98;100801.78;4920336;28;119561;-78
2022/05/30 08:45:58;;;;;;;2.90;1.38;;;;;;;16.50;53.19;100803.09;4912706;28;121015;-79
2022/05/30 08:48:48;;;;;;;2.85;1.38;;;;;;;16.56;53.20;100811.44;4926586;28;119399;-78
2022/05/30 08:51:26;;;;;;;4.88;1.40;;;;;;;16.61;53.22;100810.00;4923588;28;120280;-78
2022/05/30 08:53:55;;;;;;;6.47;1.85;;;;;;;16.65;53.79;100810.53;4929510;28;119383;-78
2022/05/30 08:56:30;;;;;;;3.15;1.38;;;;;;;16.65;52.94;100810.53;4920499;28;119437;-78
2022/05/30 08:59:48;;;;;;;2.58;1.17;;;;;;;16.63;51.19;100813.81;4922802;28;119366;-78
2022/05/30 09:02:26;;;;;;;2.55;1.35;;;;;;;16.58;51.19;100820.81;4918715;28;119656;-78
2022/05/30 09:05:07;;;;;;;3.78;1.45;;;;;;;16.52;51.66;100811.66;4937086;28;119380;-78
2022/05/30 09:07:41;;;;;;;7.15;1.45;;;;;;;16.52;53.23;100816.44;4934900;28;120143;-78
2022/05/30 09:10:21;;;;;;;3.15;1.40;;;;;;;16.51;53.11;100820.47;4927284;28;119428;-77
2022/05/30 09:12:59;;;;;;;4.72;1.38;;;;;;;16.50;53.21;100822.47;4935858;28;119593;-78
2022/05/30 09:15:58;;;;;;;3.15;1.30;;;;;;;16.47;53.64;100825.47;4919887;28;119749;-79
2022/05/30 09:18:35;;;;;;;4.55;1.40;;;;;;;16.46;55.04;100821.94;4919782;28;119425;-79
2022/05/30 09:21:02;;;;;;;5.38;1.40;;;;;;;16.40;54.40;100818.34;4919721;28;119204;-78
2022/05/30 09:23:28;;;;;;;5.78;1.63;;;;;;;16.42;53.90;100835.22;4919981;28;119605;-78
2022/05/30 09:26:03;;;;;;;6.50;1.70;;;;;;;16.39;53.75;100836.22;4904078;28;122357;-78
2022/05/30 09:28:36;;;;;;;4.13;1.52;;;;;;;16.35;53.18;100835.66;4919069;28;120349;-78
2022/05/30 09:31:20;;;;;;;3.67;1.73;;;;;;;16.32;53.85;100838.63;4937493;28;119398;-79
2022/05/30 09:34:46;;;;;;;4.45;1.42;;;;;;;16.26;53.65;100844.88;4940620;28;119338;-79
2022/05/30 09:37:33;;;;;;;3.58;1.40;;;;;;;16.18;52.05;100843.00;4904469;28;119578;-77
2022/05/30 09:40:19;;;;;;;8.32;1.30;;;;;;;16.10;53.32;100842.69;4936732;28;119265;-77
2022/05/30 09:43:20;;;;;;;6.40;1.67;;;;;;;16.08;53.22;100844.38;4935111;28;119872;-78
2022/05/30 09:45:47;;;;;;;3.78;1.50;;;;;;;16.07;53.00;100843.63;4920217;28;119407;-79
2022/05/30 09:48:58;;;;;;;6.30;1.60;;;;;;;15.99;52.88;100839.00;4866863;28;119833;-78
2022/05/30 09:51:31;;;;;;;4.93;1.48;;;;;;;15.93;53.35;100833.41;4903038;28;121949;-79
2022/05/30 09:54:01;;;;;;;5.68;1.77;;;;;;;15.92;54.04;100843.69;4903471;28;119705;-79
2022/05/30 09:56:29;;;;;;;5.22;1.63;;;;;;;15.93;55.28;100839.69;4933693;28;119401;-78
2022/05/30 09:59:03;;;;;;;6.20;1.83;;;;;;;16.00;55.79;100854.34;4939794;28;119905;-79
2022/05/30 10:01:35;;;;;;;5.47;1.87;;;;;;;15.97;55.36;100845.00;4919302;28;119662;-79
2022/05/30 10:04:20;;;;;;;5.03;1.90;;;;;;;16.00;54.33;100848.81;4919562;28;119898;-79
2022/05/30 10:07:18;;;;;;;5.13;1.80;;;;;;;15.98;54.93;100843.00;4920028;28;119386;-79
2022/05/30 10:09:54;;;;;;;6.88;2.30;;;;;;;15.99;56.16;100850.81;4935336;28;119919;-79
2022/05/30 10:12:39;;;;;;;6.18;1.83;;;;;;;16.01;56.15;100853.88;4918894;28;120076;-79
2022/05/30 10:15:24;;;;;;;5.85;1.95;;;;;;;16.02;56.48;100849.09;4942581;28;119940;-81
2022/05/30 10:18:20;;;;;;;4.90;1.83;;;;;;;15.89;56.35;100832.84;4929823;28;119921;-81
2022/05/30 10:21:08;;;;;;;5.78;1.80;;;;;;;16.03;56.16;100847.84;4922205;28;121286;-81
2022/05/30 10:30:32;;;;;;;4.93;1.90;;;;;;;16.05;55.19;100845.34;4954856;28;119653;-81
2022/05/30 10:34:06;;;;;;;5.18;1.70;;;;;;;16.12;55.69;100848.47;4926358;28;120482;-80
2022/05/30 10:36:55;;;;;;;4.55;1.67;;;;;;;16.16;55.18;100853.81;4925723;28;122932;-81
2022/05/30 10:40:00;;;;;;;3.15;1.20;;;;;;;16.19;54.51;100859.13;4933763;28;119486;-79
2022/05/30 10:42:39;;;;;;;4.53;1.30;;;;;;;16.21;54.24;100859.41;4937664;28;120144;-81
2022/05/30 10:45:52;;;;;;;3.80;1.40;;;;;;;16.26;54.48;100855.94;4922158;28;119927;-80
2022/05/30 10:48:33;;;;;;;3.75;1.50;;;;;;;16.34;53.29;100864.59;4928651;28;119502;-79
2022/05/30 10:51:16;;;;;;;7.65;1.55;;;;;;;16.40;52.92;100864.66;4935359;28;119696;-81
2022/05/30 10:53:58;;;;;;;2.63;1.47;;;;;;;16.44;55.29;100867.97;4942543;28;119788;-80
2022/05/30 10:56:45;;;;;;;3.58;1.50;;;;;;;16.38;53.92;100845.75;4915132;28;119476;-80
2022/05/30 10:59:26;;;;;;;2.97;1.20;;;;;;;16.55;52.88;100865.31;4934739;28;119831;-81
2022/05/30 11:02:03;;;;;;;4.43;1.27;;;;;;;16.58;52.32;100864.38;4934628;28;119059;-81
2022/05/30 11:04:47;;;;;;;4.78;1.15;;;;;;;16.63;53.02;100871.97;4934905;28;119423;-81
2022/05/30 11:07:36;;;;;;;3.08;1.10;;;;;;;16.65;51.87;100857.63;4928390;28;119398;-81
2022/05/30 11:10:20;;;;;;;3.22;1.10;;;;;;;16.69;51.98;100875.56;4951656;28;119515;-81
2022/05/30 11:12:50;;;;;;;;;;;;;;;16.71;52.42;100880.63;4958089;28;119432;-81
2022/05/30 11:15:31;;;;;;;3.30;1.35;;;;;;;16.74;51.64;100882.41;4933707;28;119464;-79
2022/05/30 11:18:13;;;;;;;3.22;1.25;;;;;;;16.76;53.07;100877.13;4952957;28;119558;-79
2022/05/30 11:21:29;;;;;;;1.80;1.00;;;;;;;16.74;52.90;100871.34;4934228;28;122264;-80
2022/05/30 11:24:00;;;;;;;2.72;0.95;;;;;;;16.82;51.78;100875.22;4933665;28;119660;-80
2022/05/30 11:26:35;;;;;;;2.80;1.40;;;;;;;16.86;53.51;100884.06;4948823;28;119453;-80
2022/05/30 11:29:34;;;;;;;2.92;1.20;;;;;;;16.93;52.39;100888.41;4951302;28;119676;-79
2022/05/30 11:32:26;;;;;;;3.47;1.65;;;;;;;16.88;52.39;100873.25;4930808;28;120043;-80
2022/05/30 11:35:23;;;;;;;2.85;1.23;;;;;;;16.95;51.31;100878.34;4937445;28;120134;-81
2022/05/30 11:38:11;;;;;;;2.47;1.10;;;;;;;17.02;51.30;100880.66;4951451;28;120519;-81
2022/05/30 11:40:56;;;;;;;2.00;1.00;;;;;;;17.07;51.26;100882.00;4934213;28;119567;-81
2022/05/30 11:43:40;;;;;;;;;;;;;;;17.08;51.36;100887.03;4949999;28;121024;-80
2022/05/30 11:46:26;;;;;;;3.42;1.00;;;;;;;17.12;51.25;100886.81;4931620;28;119737;-78
2022/05/30 11:49:04;;;;;;;1.77;1.00;;;;;;;17.18;50.35;100890.38;4919937;28;119562;-77
2022/05/30 11:52:12;;;;;;;2.28;0.85;;;;;;;17.19;50.62;100889.91;4954207;28;120286;-78
2022/05/30 11:54:50;;;;;;;3.20;0.93;;;;;;;17.19;50.19;100895.44;4953793;28;119358;-78
2022/05/30 11:57:25;;;;;;;2.03;1.00;;;;;;;17.18;49.63;100891.16;4922287;28;120231;-78
2022/05/30 12:00:11;;;;;;;3.03;1.10;;;;;;;17.15;48.79;100894.16;4951063;28;119811;-78
2022/05/30 12:02:58;;;;;;;2.10;0.90;;;;;;;17.14;49.19;100890.63;4954703;28;119897;-78
2022/05/30 12:05:52;;;;;;;3.28;0.80;;;;;;;17.13;49.37;100897.41;4951639;28;120338;-78
2022/05/30 12:08:32;;;;;;;1.80;1.10;;;;;;;17.12;49.67;100895.88;4952523;28;119599;-77
2022/05/30 12:11:19;;;;;;;5.63;1.25;;;;;;;17.10;49.76;100898.41;4951321;28;119419;-78
2022/05/30 12:14:19;;;;;;;3.80;1.30;;;;;;;17.10;49.56;100897.63;4934506;28;122668;-78
2022/05/30 12:17:30;;;;;;;3.42;1.30;;;;;;;17.08;49.60;100895.34;4953583;28;119639;-78